createdAt,value
2019-02-25T00:00:13.853Z,24.70
2019-02-25T00:01:13.838Z,27.10
2019-02-25T00:02:13.859Z,25.80
2019-02-25T00:03:13.819Z,24.70
2019-02-25T00:04:13.805Z,27.20
2019-02-25T00:05:13.795Z,24.10
2019-02-25T00:06:13.785Z,24.00
2019-02-25T00:07:13.772Z,22.90
2019-02-25T00:08:13.776Z,23.50
2019-02-25T00:09:13.748Z,25.10
2019-02-25T00:10:13.738Z,24.10
2019-02-25T00:11:13.732Z,22.30
2019-02-25T00:12:13.715Z,24.70
2019-02-25T00:13:14.729Z,25.30
2019-02-25T00:14:13.699Z,24.50
2019-02-25T00:15:13.681Z,23.90
2019-02-25T00:16:13.669Z,22.90
2019-02-25T00:17:15.005Z,27.60
2019-02-25T00:18:13.652Z,26.30
2019-02-25T00:19:13.654Z,25.00
2019-02-25T00:20:13.625Z,26.00
2019-02-25T00:21:13.612Z,25.10
2019-02-25T00:22:13.601Z,25.10
2019-02-25T00:23:13.590Z,25.50
2019-02-25T00:24:13.607Z,23.80
2019-02-25T00:25:13.574Z,26.60
2019-02-25T00:26:13.556Z,25.50
2019-02-25T00:27:13.544Z,29.20
2019-02-25T00:28:13.533Z,25.40
2019-02-25T00:29:13.523Z,28.00
2019-02-25T00:30:13.578Z,24.90
2019-02-25T00:31:13.502Z,28.40
2019-02-25T00:32:13.487Z,26.50
2019-02-25T00:33:13.476Z,27.70
2019-02-25T00:34:13.467Z,24.00
2019-02-25T00:35:13.471Z,25.00
2019-02-25T00:36:13.444Z,26.90
2019-02-25T00:37:13.433Z,27.10
2019-02-25T00:38:13.424Z,25.20
2019-02-25T00:39:13.411Z,25.00
2019-02-25T00:40:13.433Z,24.60
2019-02-25T00:41:13.387Z,22.70
2019-02-25T00:42:13.382Z,23.40
2019-02-25T00:43:13.366Z,26.30
2019-02-25T00:44:13.355Z,28.00
2019-02-25T00:45:13.344Z,24.70
2019-02-25T00:46:13.347Z,22.30
2019-02-25T00:47:13.318Z,25.70
2019-02-25T00:48:13.310Z,25.80
2019-02-25T00:49:13.297Z,26.50
2019-02-25T00:50:13.294Z,27.20
2019-02-25T00:51:13.304Z,27.30
2019-02-25T00:52:13.262Z,26.30
2019-02-25T00:53:13.251Z,24.00
2019-02-25T00:54:13.245Z,26.50
2019-02-25T00:55:13.229Z,26.70
2019-02-25T00:56:13.236Z,23.70
2019-02-25T00:57:13.221Z,30.10
2019-02-25T00:58:13.195Z,25.30
2019-02-25T00:59:13.184Z,25.70
2019-02-25T01:00:13.173Z,24.40
2019-02-25T01:01:13.162Z,23.80
2019-02-25T01:02:13.165Z,26.10
2019-02-25T01:03:13.139Z,22.90
2019-02-25T01:04:13.127Z,27.30
2019-02-25T01:05:13.116Z,29.10
2019-02-25T01:06:13.109Z,26.10
2019-02-25T01:07:13.125Z,23.90
2019-02-25T01:08:13.080Z,22.80
2019-02-25T01:09:13.070Z,25.70
2019-02-25T01:10:13.057Z,26.10
2019-02-25T01:11:13.045Z,31.40
2019-02-25T01:12:13.036Z,28.30
2019-02-25T01:13:13.042Z,27.30
2019-02-25T01:14:13.016Z,26.90
2019-02-25T01:15:13.007Z,24.60
2019-02-25T01:16:12.989Z,23.10
2019-02-25T01:17:12.979Z,26.90
2019-02-25T01:18:13.006Z,32.10
2019-02-25T01:19:12.956Z,27.30
2019-02-25T01:20:12.945Z,28.10
2019-02-25T01:21:12.935Z,24.50
2019-02-25T01:22:12.921Z,25.60
2019-02-25T01:23:12.912Z,27.70
2019-02-25T01:24:12.932Z,30.50
2019-02-25T01:25:12.889Z,27.90
2019-02-25T01:26:12.877Z,25.30
2019-02-25T01:27:12.867Z,24.60
2019-02-25T01:28:12.858Z,29.90
2019-02-25T01:29:12.850Z,27.30
2019-02-25T01:30:12.859Z,30.10
2019-02-25T01:31:12.820Z,25.90
2019-02-25T01:32:12.808Z,28.40
2019-02-25T01:33:12.796Z,27.80
2019-02-25T01:34:12.784Z,26.50
2019-02-25T01:35:12.792Z,28.50
2019-02-25T01:36:12.765Z,25.40
2019-02-25T01:37:12.751Z,25.40
2019-02-25T01:38:12.741Z,26.80
2019-02-25T01:39:12.729Z,26.50
2019-02-25T01:40:12.749Z,24.70
2019-02-25T01:41:12.708Z,25.00
2019-02-25T01:42:12.696Z,26.80
2019-02-25T01:43:12.687Z,25.70
2019-02-25T01:44:12.673Z,27.70
2019-02-25T01:45:12.663Z,24.00
2019-02-25T01:46:12.666Z,27.50
2019-02-25T01:47:12.639Z,32.00
2019-02-25T01:48:12.628Z,28.50
2019-02-25T01:49:12.618Z,27.50
2019-02-25T01:50:12.605Z,29.10
2019-02-25T01:51:12.608Z,30.50
2019-02-25T01:52:12.612Z,29.00
2019-02-25T01:53:12.572Z,29.40
2019-02-25T01:54:12.561Z,26.00
2019-02-25T01:55:12.547Z,29.50
2019-02-25T01:56:12.553Z,26.00
2019-02-25T01:57:12.531Z,26.10
2019-02-25T01:58:12.514Z,25.30
2019-02-25T01:59:12.502Z,29.10
2019-02-25T02:00:12.492Z,25.90
2019-02-25T02:01:12.495Z,26.10
2019-02-25T02:02:12.467Z,29.60
2019-02-25T02:03:12.456Z,32.30
2019-02-25T02:04:12.448Z,27.40
2019-02-25T02:05:12.436Z,30.00
2019-02-25T02:06:12.439Z,22.10
2019-02-25T02:07:12.412Z,27.10
2019-02-25T02:08:12.399Z,28.90
2019-02-25T02:09:12.389Z,28.30
2019-02-25T02:10:12.378Z,26.40
2019-02-25T02:11:12.381Z,26.50
2019-02-25T02:12:12.366Z,24.30
2019-02-25T02:13:14.474Z,26.00
2019-02-25T02:14:12.333Z,25.80
2019-02-25T02:15:12.320Z,24.30
2019-02-25T02:16:12.333Z,26.00
2019-02-25T02:17:12.302Z,25.50
2019-02-25T02:18:12.289Z,24.10
2019-02-25T02:19:12.274Z,25.40
2019-02-25T02:20:12.263Z,24.70
2019-02-25T02:21:12.271Z,25.80
2019-02-25T02:22:12.243Z,25.80
2019-02-25T02:23:12.230Z,26.80
2019-02-25T02:24:12.218Z,24.70
2019-02-25T02:25:12.206Z,23.70
2019-02-25T02:26:12.232Z,24.50
2019-02-25T02:27:12.183Z,23.80
2019-02-25T02:28:12.173Z,22.50
2019-02-25T02:29:12.195Z,24.10
2019-02-25T02:30:12.160Z,22.50
2019-02-25T02:31:12.139Z,24.30
2019-02-25T02:32:12.155Z,25.80
2019-02-25T02:33:12.116Z,25.50
2019-02-25T02:34:12.105Z,25.10
2019-02-25T02:35:12.093Z,24.00
2019-02-25T02:36:12.087Z,25.20
2019-02-25T02:37:12.072Z,25.80
2019-02-25T02:38:12.092Z,21.90
2019-02-25T02:39:12.049Z,26.20
2019-02-25T02:40:12.036Z,26.40
2019-02-25T02:41:12.030Z,24.00
2019-02-25T02:42:12.014Z,22.50
2019-02-25T02:43:12.007Z,23.20
2019-02-25T02:44:12.492Z,25.60
2019-02-25T02:45:11.978Z,22.60
2019-02-25T02:46:11.971Z,25.60
2019-02-25T02:47:11.957Z,28.70
2019-02-25T02:48:11.948Z,23.20
2019-02-25T02:49:11.937Z,27.40
2019-02-25T02:50:11.940Z,29.20
2019-02-25T02:51:11.913Z,23.90
2019-02-25T02:52:11.900Z,21.40
2019-02-25T02:53:11.905Z,29.40
2019-02-25T02:54:11.877Z,25.30
2019-02-25T02:55:11.882Z,25.60
2019-02-25T02:56:11.853Z,24.70
2019-02-25T02:57:11.864Z,24.50
2019-02-25T02:58:11.840Z,25.40
2019-02-25T02:59:12.532Z,23.90
2019-02-25T03:00:11.831Z,24.00
2019-02-25T03:01:11.801Z,26.80
2019-02-25T03:02:11.787Z,27.90
2019-02-25T03:03:11.833Z,25.70
2019-02-25T03:04:11.767Z,23.30
2019-02-25T03:05:11.774Z,26.50
2019-02-25T03:06:11.743Z,24.30
2019-02-25T03:07:11.728Z,23.50
2019-02-25T03:08:11.719Z,25.00
2019-02-25T03:09:11.705Z,27.50
2019-02-25T03:10:11.722Z,24.00
2019-02-25T03:11:11.684Z,29.70
2019-02-25T03:12:11.672Z,26.10
2019-02-25T03:13:11.662Z,28.40
2019-02-25T03:14:11.649Z,27.90
2019-02-25T03:15:11.639Z,29.50
2019-02-25T03:16:11.649Z,26.30
2019-02-25T03:17:11.616Z,30.30
2019-02-25T03:18:11.607Z,32.20
2019-02-25T03:19:11.595Z,26.40
2019-02-25T03:20:11.591Z,28.10
2019-02-25T03:21:11.590Z,31.00
2019-02-25T03:22:11.618Z,24.40
2019-02-25T03:23:11.546Z,25.40
2019-02-25T03:24:11.542Z,25.50
2019-02-25T03:25:11.524Z,24.50
2019-02-25T03:26:11.532Z,28.80
2019-02-25T03:27:11.500Z,26.40
2019-02-25T03:28:11.490Z,29.60
2019-02-25T03:29:11.479Z,24.80
2019-02-25T03:30:11.468Z,27.30
2019-02-25T03:31:11.476Z,24.80
2019-02-25T03:32:11.445Z,25.10
2019-02-25T03:33:11.437Z,32.00
2019-02-25T03:34:11.438Z,30.80
2019-02-25T03:35:11.413Z,25.30
2019-02-25T03:36:11.430Z,27.10
2019-02-25T03:37:11.388Z,26.30
2019-02-25T03:38:11.379Z,23.40
2019-02-25T03:39:11.367Z,28.60
2019-02-25T03:40:11.357Z,26.30
2019-02-25T03:41:11.349Z,34.60
2019-02-25T03:42:11.359Z,35.10
2019-02-25T03:43:11.321Z,24.80
2019-02-25T03:44:11.308Z,26.40
2019-02-25T03:45:11.297Z,29.70
2019-02-25T03:46:11.288Z,26.10
2019-02-25T03:47:11.286Z,24.50
2019-02-25T03:48:11.295Z,33.40
2019-02-25T03:49:11.255Z,26.70
2019-02-25T03:50:11.243Z,28.30
2019-02-25T03:51:11.228Z,26.80
2019-02-25T03:52:11.217Z,23.00
2019-02-25T03:53:11.232Z,29.60
2019-02-25T03:54:11.198Z,27.30
2019-02-25T03:55:11.184Z,24.90
2019-02-25T03:56:11.173Z,26.70
2019-02-25T03:57:11.165Z,24.00
2019-02-25T03:58:11.153Z,24.50
2019-02-25T03:59:11.162Z,24.80
2019-02-25T04:00:11.164Z,29.00
2019-02-25T04:01:11.115Z,24.40
2019-02-25T04:02:11.107Z,31.30
2019-02-25T04:03:11.092Z,25.90
2019-02-25T04:04:11.109Z,22.30
2019-02-25T04:05:11.071Z,20.50
2019-02-25T04:06:11.064Z,21.50
2019-02-25T04:07:11.047Z,23.50
2019-02-25T04:08:11.036Z,26.90
2019-02-25T04:09:11.029Z,24.40
2019-02-25T04:10:11.036Z,20.90
2019-02-25T04:11:11.000Z,20.20
2019-02-25T04:12:10.991Z,26.10
2019-02-25T04:13:10.980Z,21.50
2019-02-25T04:14:10.967Z,27.00
2019-02-25T04:15:10.960Z,20.90
2019-02-25T04:16:10.962Z,27.40
2019-02-25T04:17:10.936Z,24.50
2019-02-25T04:18:10.925Z,25.80
2019-02-25T04:19:10.917Z,27.40
2019-02-25T04:20:10.900Z,21.90
2019-02-25T04:21:10.916Z,20.80
2019-02-25T04:22:10.877Z,19.30
2019-02-25T04:23:10.867Z,26.30
2019-02-25T04:24:10.863Z,21.50
2019-02-25T04:25:10.844Z,20.00
2019-02-25T04:26:10.879Z,24.30
2019-02-25T04:27:10.840Z,22.30
2019-02-25T04:28:10.811Z,20.00
2019-02-25T04:29:10.798Z,26.00
2019-02-25T04:30:10.789Z,21.80
2019-02-25T04:31:10.773Z,21.20
2019-02-25T04:32:10.779Z,24.00
2019-02-25T04:33:10.753Z,20.80
2019-02-25T04:34:10.742Z,22.00
2019-02-25T04:35:10.735Z,23.50
2019-02-25T04:36:10.717Z,21.40
2019-02-25T04:37:10.735Z,25.10
2019-02-25T04:38:10.694Z,21.10
2019-02-25T04:39:10.684Z,23.30
2019-02-25T04:40:10.678Z,24.50
2019-02-25T04:41:10.663Z,19.50
2019-02-25T04:42:10.649Z,22.80
2019-02-25T04:43:10.661Z,22.60
2019-02-25T04:44:10.626Z,26.40
2019-02-25T04:45:10.617Z,17.60
2019-02-25T04:46:10.605Z,21.30
2019-02-25T04:47:10.593Z,20.80
2019-02-25T04:48:10.598Z,20.60
2019-02-25T04:49:10.574Z,19.60
2019-02-25T04:50:10.566Z,22.00
2019-02-25T04:51:10.550Z,22.70
2019-02-25T04:52:10.535Z,22.50
2019-02-25T04:53:10.539Z,23.40
2019-02-25T04:54:10.514Z,26.50
2019-02-25T04:55:10.526Z,22.20
2019-02-25T04:56:10.496Z,20.00
2019-02-25T04:57:10.478Z,21.50
2019-02-25T04:58:10.468Z,20.30
2019-02-25T04:59:10.457Z,20.30
2019-02-25T05:00:10.443Z,22.60
2019-02-25T05:01:10.461Z,23.30
2019-02-25T05:02:10.426Z,21.10
2019-02-25T05:03:10.411Z,18.80
2019-02-25T05:04:10.407Z,21.00
2019-02-25T05:05:10.388Z,21.90
2019-02-25T05:06:10.382Z,25.00
2019-02-25T05:07:10.389Z,20.20
2019-02-25T05:08:10.354Z,22.10
2019-02-25T05:09:10.341Z,20.30
2019-02-25T05:10:10.329Z,20.60
2019-02-25T05:11:10.323Z,18.80
2019-02-25T05:12:10.338Z,23.20
2019-02-25T05:13:10.300Z,21.30
2019-02-25T05:14:10.287Z,20.80
2019-02-25T05:15:10.276Z,21.60
2019-02-25T05:16:10.263Z,21.80
2019-02-25T05:17:10.260Z,18.90
2019-02-25T05:18:10.274Z,21.40
2019-02-25T05:19:10.229Z,22.90
2019-02-25T05:20:10.226Z,24.10
2019-02-25T05:21:10.205Z,18.60
2019-02-25T05:22:10.196Z,21.40
2019-02-25T05:23:10.182Z,21.80
2019-02-25T05:24:10.196Z,23.20
2019-02-25T05:25:10.163Z,24.90
2019-02-25T05:26:10.148Z,20.70
2019-02-25T05:27:10.139Z,21.20
2019-02-25T05:28:10.128Z,22.80
2019-02-25T05:29:10.145Z,22.80
2019-02-25T05:30:10.110Z,24.90
2019-02-25T05:31:10.095Z,22.00
2019-02-25T05:32:10.082Z,21.00
2019-02-25T05:33:10.070Z,25.80
2019-02-25T05:34:10.061Z,20.00
2019-02-25T05:35:10.074Z,23.20
2019-02-25T05:36:10.039Z,23.30
2019-02-25T05:37:10.029Z,22.70
2019-02-25T05:38:10.018Z,26.30
2019-02-25T05:39:10.096Z,23.90
2019-02-25T05:40:10.000Z,21.60
2019-02-25T05:41:10.005Z,26.40
2019-02-25T05:42:09.979Z,25.30
2019-02-25T05:43:09.959Z,25.30
2019-02-25T05:44:09.945Z,20.10
2019-02-25T05:45:09.935Z,24.60
2019-02-25T05:46:09.922Z,22.80
2019-02-25T05:47:09.932Z,22.50
2019-02-25T05:48:09.899Z,23.60
2019-02-25T05:49:09.889Z,21.70
2019-02-25T05:50:09.875Z,21.50
2019-02-25T05:51:09.873Z,21.10
2019-02-25T05:52:09.885Z,21.80
2019-02-25T05:53:09.862Z,20.30
2019-02-25T05:54:09.850Z,19.90
2019-02-25T05:55:09.826Z,23.00
2019-02-25T05:56:09.810Z,18.60
2019-02-25T05:57:09.799Z,19.90
2019-02-25T05:58:09.815Z,23.00
2019-02-25T05:59:09.776Z,21.60
2019-02-25T06:00:09.763Z,22.70
2019-02-25T06:01:09.750Z,23.20
2019-02-25T06:02:09.739Z,19.90
2019-02-25T06:03:09.728Z,22.70
2019-02-25T06:04:09.737Z,22.00
2019-02-25T06:05:09.706Z,21.40
2019-02-25T06:06:09.693Z,22.70
2019-02-25T06:07:10.501Z,21.20
2019-02-25T06:08:09.678Z,20.10
2019-02-25T06:09:09.690Z,26.10
2019-02-25T06:10:09.653Z,19.50
2019-02-25T06:11:09.642Z,21.70
2019-02-25T06:12:09.625Z,23.90
2019-02-25T06:13:09.640Z,19.90
2019-02-25T06:14:09.603Z,24.10
2019-02-25T06:15:09.624Z,24.30
2019-02-25T06:16:09.583Z,26.10
2019-02-25T06:17:09.570Z,24.50
2019-02-25T06:18:09.561Z,26.10
2019-02-25T06:19:09.548Z,31.00
2019-02-25T06:20:09.536Z,29.20
2019-02-25T06:21:09.552Z,26.60
2019-02-25T06:22:09.519Z,26.10
2019-02-25T06:23:09.508Z,21.60
2019-02-25T06:24:09.491Z,25.70
2019-02-25T06:25:09.480Z,22.30
2019-02-25T06:26:09.467Z,22.80
2019-02-25T06:27:09.474Z,24.10
2019-02-25T06:28:09.444Z,26.70
2019-02-25T06:29:09.438Z,18.80
2019-02-25T06:30:09.425Z,23.00
2019-02-25T06:31:09.411Z,21.70
2019-02-25T06:32:09.430Z,26.30
2019-02-25T06:33:09.398Z,23.50
2019-02-25T06:34:09.377Z,21.50
2019-02-25T06:35:09.370Z,26.30
2019-02-25T06:36:09.354Z,21.30
2019-02-25T06:37:09.343Z,23.50
2019-02-25T06:38:09.369Z,22.60
2019-02-25T06:39:09.325Z,22.60
2019-02-25T06:40:09.310Z,22.50
2019-02-25T06:41:09.298Z,18.40
2019-02-25T06:42:09.285Z,22.30
2019-02-25T06:43:09.274Z,22.50
2019-02-25T06:44:09.286Z,21.70
2019-02-25T06:45:09.254Z,19.60
2019-02-25T06:46:09.241Z,19.90
2019-02-25T06:47:09.228Z,23.60
2019-02-25T06:48:09.218Z,19.90
2019-02-25T06:49:09.232Z,21.60
2019-02-25T06:50:09.194Z,21.30
2019-02-25T06:51:09.185Z,20.10
2019-02-25T06:52:09.174Z,19.90
2019-02-25T06:53:09.162Z,21.70
2019-02-25T06:54:09.149Z,20.30
2019-02-25T06:55:09.165Z,18.20
2019-02-25T06:56:09.126Z,19.80
2019-02-25T06:57:09.115Z,19.60
2019-02-25T06:58:09.104Z,23.30
2019-02-25T06:59:09.094Z,17.90
2019-02-25T07:00:09.084Z,20.30
2019-02-25T07:01:09.098Z,21.10
2019-02-25T07:02:09.062Z,21.80
2019-02-25T07:03:09.051Z,21.20
2019-02-25T07:04:09.034Z,20.50
2019-02-25T07:05:09.025Z,22.10
2019-02-25T07:06:09.019Z,20.80
2019-02-25T07:07:09.018Z,20.70
2019-02-25T07:08:08.994Z,19.90
2019-02-25T07:09:08.982Z,22.10
2019-02-25T07:10:08.975Z,23.10
2019-02-25T07:11:08.956Z,19.90
2019-02-25T07:12:08.963Z,21.90
2019-02-25T07:13:08.932Z,19.70
2019-02-25T07:14:08.922Z,21.00
2019-02-25T07:15:08.910Z,21.30
2019-02-25T07:16:08.906Z,20.90
2019-02-25T07:17:08.919Z,19.10
2019-02-25T07:18:08.876Z,19.80
2019-02-25T07:19:08.865Z,19.90
2019-02-25T07:20:08.854Z,20.00
2019-02-25T07:21:08.847Z,22.40
2019-02-25T07:22:08.830Z,20.40
2019-02-25T07:23:08.848Z,21.80
2019-02-25T07:24:08.811Z,20.50
2019-02-25T07:25:08.797Z,21.80
2019-02-25T07:26:08.787Z,18.40
2019-02-25T07:27:08.775Z,21.10
2019-02-25T07:28:08.764Z,22.10
2019-02-25T07:29:08.767Z,21.60
2019-02-25T07:30:08.742Z,18.70
2019-02-25T07:31:08.731Z,21.90
2019-02-25T07:32:08.722Z,20.00
2019-02-25T07:33:08.712Z,19.30
2019-02-25T07:34:08.731Z,23.20
2019-02-25T07:35:08.688Z,21.30
2019-02-25T07:36:08.678Z,20.30
2019-02-25T07:37:08.661Z,20.30
2019-02-25T07:38:08.652Z,21.90
2019-02-25T07:39:08.639Z,21.80
2019-02-25T07:40:08.644Z,23.20
2019-02-25T07:41:08.617Z,22.80
2019-02-25T07:42:08.607Z,23.00
2019-02-25T07:43:08.597Z,17.80
2019-02-25T07:44:08.583Z,21.50
2019-02-25T07:45:08.600Z,20.80
2019-02-25T07:46:08.563Z,26.60
2019-02-25T07:47:08.553Z,22.90
2019-02-25T07:48:08.539Z,20.00
2019-02-25T07:49:08.528Z,18.60
2019-02-25T07:50:08.518Z,22.30
2019-02-25T07:51:08.531Z,21.30
2019-02-25T07:52:08.497Z,17.70
2019-02-25T07:53:08.482Z,16.00
2019-02-25T07:54:08.470Z,19.20
2019-02-25T07:55:08.461Z,18.40
2019-02-25T07:56:08.452Z,22.10
2019-02-25T07:57:08.467Z,21.50
2019-02-25T07:58:08.427Z,19.90
2019-02-25T07:59:08.416Z,19.10
2019-02-25T08:00:08.402Z,17.50
2019-02-25T08:01:08.391Z,18.20
2019-02-25T08:02:08.387Z,21.30
2019-02-25T08:03:08.388Z,17.80
2019-02-25T08:04:08.358Z,19.60
2019-02-25T08:05:08.346Z,23.80
2019-02-25T08:06:08.347Z,18.00
2019-02-25T08:07:08.323Z,17.30
2019-02-25T08:08:08.340Z,17.10
2019-02-25T08:09:08.302Z,18.70
2019-02-25T08:10:08.290Z,17.60
2019-02-25T08:11:08.278Z,18.10
2019-02-25T08:12:08.270Z,21.20
2019-02-25T08:13:08.255Z,20.20
2019-02-25T08:14:08.262Z,20.80
2019-02-25T08:15:09.024Z,23.20
2019-02-25T08:16:08.221Z,19.40
2019-02-25T08:17:08.210Z,15.40
2019-02-25T08:18:08.197Z,18.30
2019-02-25T08:19:08.218Z,19.30
2019-02-25T08:20:08.175Z,16.10
2019-02-25T08:21:08.166Z,21.60
2019-02-25T08:22:08.153Z,15.90
2019-02-25T08:23:08.141Z,19.50
2019-02-25T08:24:08.132Z,17.10
2019-02-25T08:25:08.137Z,18.20
2019-02-25T08:26:08.107Z,20.80
2019-02-25T08:27:08.105Z,18.40
2019-02-25T08:28:08.084Z,18.20
2019-02-25T08:29:08.074Z,19.40
2019-02-25T08:30:08.090Z,16.80
2019-02-25T08:31:09.257Z,18.20
2019-02-25T08:32:08.039Z,17.60
2019-02-25T08:33:08.083Z,16.40
2019-02-25T08:34:18.973Z,18.60
2019-02-25T08:35:08.004Z,18.90
2019-02-25T08:36:08.012Z,20.30
2019-02-25T08:37:07.989Z,18.90
2019-02-25T08:38:07.972Z,20.50
2019-02-25T08:39:07.961Z,17.60
2019-02-25T08:40:07.947Z,19.40
2019-02-25T08:41:07.964Z,21.00
2019-02-25T08:42:07.929Z,19.40
2019-02-25T08:43:07.914Z,19.80
2019-02-25T08:44:07.905Z,20.20
2019-02-25T08:45:07.891Z,17.60
2019-02-25T08:46:07.884Z,18.60
2019-02-25T08:47:07.898Z,17.90
2019-02-25T08:48:07.875Z,20.30
2019-02-25T08:49:07.849Z,20.70
2019-02-25T08:50:07.841Z,19.90
2019-02-25T08:51:07.823Z,23.50
2019-02-25T08:52:07.816Z,19.70
2019-02-25T08:53:07.820Z,19.00
2019-02-25T08:54:07.790Z,20.60
2019-02-25T08:55:07.777Z,20.70
2019-02-25T08:56:07.768Z,18.50
2019-02-25T08:57:07.758Z,22.80
2019-02-25T08:58:07.775Z,23.80
2019-02-25T08:59:07.733Z,19.60
2019-02-25T09:00:07.723Z,19.60
2019-02-25T09:01:07.711Z,25.10
2019-02-25T09:02:07.697Z,22.00
2019-02-25T09:03:07.692Z,22.80
2019-02-25T09:04:07.736Z,19.50
2019-02-25T09:05:07.665Z,19.50
2019-02-25T09:06:07.653Z,20.50
2019-02-25T09:07:07.643Z,22.40
2019-02-25T09:08:07.639Z,23.70
2019-02-25T09:09:07.623Z,22.60
2019-02-25T09:10:07.635Z,18.60
2019-02-25T09:11:13.887Z,22.30
2019-02-25T09:12:08.583Z,19.70
2019-02-25T09:13:07.574Z,18.90
2019-02-25T09:14:07.562Z,18.20
2019-02-25T09:15:07.553Z,23.70
2019-02-25T09:16:07.554Z,18.40
2019-02-25T09:17:07.528Z,20.10
2019-02-25T09:18:07.522Z,21.00
2019-02-25T09:19:07.502Z,20.30
2019-02-25T09:20:07.492Z,19.80
2019-02-25T09:21:08.175Z,20.00
2019-02-25T09:22:07.469Z,15.50
2019-02-25T09:23:07.459Z,17.10
2019-02-25T09:24:07.452Z,18.70
2019-02-25T09:25:07.448Z,18.70
2019-02-25T09:26:07.460Z,17.40
2019-02-25T09:27:09.132Z,17.60
2019-02-25T09:28:08.125Z,17.20
2019-02-25T09:29:07.394Z,18.80
2019-02-25T09:30:07.380Z,15.00
2019-02-25T09:31:07.369Z,17.50
2019-02-25T09:32:07.361Z,16.40
2019-02-25T09:33:07.369Z,16.70
2019-02-25T09:34:07.335Z,17.20
2019-02-25T09:35:07.323Z,17.20
2019-02-25T09:36:07.311Z,15.50
2019-02-25T09:37:07.300Z,17.40
2019-02-25T09:38:07.314Z,19.70
2019-02-25T09:39:07.304Z,16.50
2019-02-25T09:40:07.270Z,14.20
2019-02-25T09:41:07.257Z,16.10
2019-02-25T09:42:07.261Z,19.20
2019-02-25T09:43:07.233Z,16.50
2019-02-25T09:44:07.253Z,19.10
2019-02-25T09:45:07.210Z,18.00
2019-02-25T09:46:07.198Z,16.40
2019-02-25T09:47:07.191Z,15.90
2019-02-25T09:48:07.235Z,15.60
2019-02-25T09:49:07.164Z,15.80
2019-02-25T09:50:07.180Z,16.20
2019-02-25T09:51:07.149Z,15.90
2019-02-25T09:52:07.130Z,17.10
2019-02-25T09:53:07.420Z,15.10
2019-02-25T09:54:07.109Z,15.20
2019-02-25T09:55:07.102Z,18.20
2019-02-25T09:56:07.119Z,18.50
2019-02-25T09:57:07.074Z,20.20
2019-02-25T09:58:07.063Z,20.50
2019-02-25T09:59:07.051Z,17.70
2019-02-25T10:00:07.038Z,17.60
2019-02-25T10:01:07.029Z,17.30
2019-02-25T10:02:07.045Z,16.40
2019-02-25T10:03:07.006Z,15.70
2019-02-25T10:04:08.752Z,13.60
2019-02-25T10:05:06.983Z,15.80
2019-02-25T10:06:06.973Z,16.20
2019-02-25T10:07:06.964Z,15.60
2019-02-25T10:08:06.967Z,17.70
2019-02-25T10:09:06.943Z,13.80
2019-02-25T10:10:06.942Z,14.80
2019-02-25T10:11:06.922Z,15.60
2019-02-25T10:12:06.906Z,12.90
2019-02-25T10:13:06.939Z,15.00
2019-02-25T10:14:06.882Z,14.00
2019-02-25T10:15:06.872Z,12.20
2019-02-25T10:16:06.863Z,14.10
2019-02-25T10:17:06.849Z,14.00
2019-02-25T10:18:06.842Z,12.70
2019-02-25T10:19:06.857Z,11.90
2019-02-25T10:20:06.818Z,15.10
2019-02-25T10:21:06.805Z,13.10
2019-02-25T10:22:06.798Z,13.80
2019-02-25T10:23:06.779Z,13.70
2019-02-25T10:24:06.769Z,13.50
2019-02-25T10:25:06.788Z,14.50
2019-02-25T10:26:06.747Z,12.60
2019-02-25T10:27:06.735Z,12.40
2019-02-25T10:28:06.723Z,11.40
2019-02-25T10:29:06.713Z,11.80
2019-02-25T10:30:06.702Z,11.60
2019-02-25T10:31:06.724Z,13.30
2019-02-25T10:32:06.698Z,13.30
2019-02-25T10:33:06.667Z,14.60
2019-02-25T10:34:07.676Z,12.80
2019-02-25T10:35:06.651Z,13.70
2019-02-25T10:36:06.634Z,11.10
2019-02-25T10:37:06.656Z,13.80
2019-02-25T10:38:06.614Z,11.20
2019-02-25T10:39:08.574Z,11.70
2019-02-25T10:40:06.589Z,11.10
2019-02-25T10:41:06.605Z,12.90
2019-02-25T10:42:06.569Z,13.60
2019-02-25T10:43:06.578Z,11.30
2019-02-25T10:44:08.511Z,14.40
2019-02-25T10:45:07.228Z,12.40
2019-02-25T10:46:07.119Z,13.90
2019-02-25T10:47:06.514Z,12.70
2019-02-25T10:48:06.548Z,15.10
2019-02-25T10:49:11.594Z,16.40
2019-02-25T10:50:07.523Z,16.30
2019-02-25T10:51:07.054Z,16.10
2019-02-25T10:52:08.556Z,18.30
2019-02-25T10:53:06.446Z,17.50
2019-02-25T10:54:06.467Z,13.10
2019-02-25T10:55:06.425Z,14.20
2019-02-25T10:56:06.419Z,15.20
2019-02-25T10:57:06.407Z,14.50
2019-02-25T10:58:06.395Z,16.20
2019-02-25T10:59:08.094Z,15.10
2019-02-25T11:00:07.487Z,15.80
2019-02-25T11:01:08.475Z,15.70
2019-02-25T11:02:08.596Z,15.60
2019-02-25T11:03:06.339Z,16.10
2019-02-25T11:04:06.326Z,17.80
2019-02-25T11:05:06.331Z,13.00
2019-02-25T11:06:06.320Z,13.70
2019-02-25T11:07:07.822Z,13.80
2019-02-25T11:08:07.412Z,14.00
2019-02-25T11:09:07.014Z,15.50
2019-02-25T11:10:06.260Z,16.80
2019-02-25T11:11:06.286Z,17.90
2019-02-25T11:12:06.239Z,16.40
2019-02-25T11:13:06.234Z,15.10
2019-02-25T11:14:07.260Z,16.00
2019-02-25T11:15:07.399Z,14.30
2019-02-25T11:16:06.221Z,16.60
2019-02-25T11:17:06.182Z,13.80
2019-02-25T11:18:06.172Z,15.40
2019-02-25T11:19:06.162Z,15.10
2019-02-25T11:20:06.153Z,13.00
2019-02-25T11:21:13.778Z,15.00
2019-02-25T11:22:08.339Z,14.30
2019-02-25T11:23:06.126Z,16.70
2019-02-25T11:24:06.109Z,13.40
2019-02-25T11:25:06.097Z,15.60
2019-02-25T11:26:06.089Z,17.30
2019-02-25T11:27:07.340Z,15.40
2019-02-25T11:28:07.657Z,15.10
2019-02-25T11:29:07.745Z,15.20
2019-02-25T11:30:06.059Z,18.50
2019-02-25T11:31:06.022Z,18.50
2019-02-25T11:32:06.013Z,18.00
2019-02-25T11:33:06.019Z,20.20
2019-02-25T11:34:07.995Z,19.40
2019-02-25T11:35:06.752Z,17.90
2019-02-25T11:36:05.970Z,19.20
2019-02-25T11:37:06.011Z,22.60
2019-02-25T11:38:05.979Z,23.70
2019-02-25T11:39:06.942Z,21.90
2019-02-25T11:40:06.709Z,21.80
2019-02-25T11:41:07.115Z,19.60
2019-02-25T11:42:07.835Z,24.10
2019-02-25T11:43:05.895Z,21.00
2019-02-25T11:44:05.908Z,21.40
2019-02-25T11:45:05.871Z,20.50
2019-02-25T11:46:05.859Z,18.50
2019-02-25T11:47:05.844Z,21.20
2019-02-25T11:48:05.839Z,17.90
2019-02-25T11:49:05.822Z,22.10
2019-02-25T11:50:05.837Z,19.70
2019-02-25T11:51:05.802Z,18.70
2019-02-25T11:52:15.264Z,21.90
2019-02-25T11:53:05.775Z,17.40
2019-02-25T11:54:05.767Z,17.90
2019-02-25T11:55:05.753Z,18.20
2019-02-25T11:56:05.770Z,18.30
2019-02-25T11:57:05.741Z,17.80
2019-02-25T11:58:05.745Z,17.80
2019-02-25T11:59:05.708Z,17.70
2019-02-25T12:00:05.694Z,18.40
2019-02-25T12:01:05.710Z,18.30
2019-02-25T12:02:05.675Z,18.90
2019-02-25T12:03:05.667Z,19.80
2019-02-25T12:04:05.648Z,18.30
2019-02-25T12:05:05.638Z,21.30
2019-02-25T12:06:05.626Z,20.10
2019-02-25T12:07:08.281Z,18.90
2019-02-25T12:08:06.259Z,20.30
2019-02-25T12:09:06.591Z,21.40
2019-02-25T12:10:05.580Z,18.00
2019-02-25T12:11:05.570Z,20.50
2019-02-25T12:12:05.559Z,18.90
2019-02-25T12:13:06.277Z,18.60
2019-02-25T12:14:08.258Z,20.60
2019-02-25T12:15:05.523Z,20.00
2019-02-25T12:16:05.517Z,20.30
2019-02-25T12:17:05.503Z,20.00
2019-02-25T12:18:05.518Z,19.40
2019-02-25T12:19:05.480Z,19.60
2019-02-25T12:20:05.471Z,19.70
2019-02-25T12:21:05.464Z,18.90
2019-02-25T12:22:05.447Z,18.80
2019-02-25T12:23:05.499Z,20.70
2019-02-25T12:24:06.264Z,19.20
2019-02-25T12:25:05.411Z,20.30
2019-02-25T12:26:05.418Z,18.30
2019-02-25T12:27:05.392Z,17.60
2019-02-25T12:28:05.388Z,18.10
2019-02-25T12:29:10.749Z,23.00
2019-02-25T12:30:06.394Z,22.20
2019-02-25T12:31:05.362Z,20.80
2019-02-25T12:32:05.373Z,19.20
2019-02-25T12:33:05.322Z,22.40
2019-02-25T12:34:05.313Z,20.40
2019-02-25T12:35:05.301Z,22.00
2019-02-25T12:36:05.312Z,22.10
2019-02-25T12:37:05.282Z,20.40
2019-02-25T12:38:05.266Z,20.40
2019-02-25T12:39:05.254Z,26.50
2019-02-25T12:40:05.248Z,19.70
2019-02-25T12:41:05.253Z,20.10
2019-02-25T12:42:05.248Z,21.20
2019-02-25T12:43:05.220Z,21.40
2019-02-25T12:44:05.197Z,20.40
2019-02-25T12:45:05.193Z,22.30
2019-02-25T12:46:05.201Z,22.90
2019-02-25T12:47:05.164Z,17.90
2019-02-25T12:48:05.157Z,20.60
2019-02-25T12:49:06.800Z,20.00
2019-02-25T12:50:06.805Z,25.00
2019-02-25T12:51:05.118Z,22.30
2019-02-25T12:52:05.122Z,18.40